Flight Track Log - Related Links

Times and Time Zones

All times are in EDT time to prevent confusion due to time zone crossing. See the LBQ792 flight status page for this flight to view local times or setup timezone preferences in your user account.

Time Position Orientation Groundspeed Altitude Reporting Facility
EDT Latitude Longitude Course Direction KTS MPH feet Rate Location/Type
Wed 08:31:55 PM 40.3756 -76.0292 286° West 157 181 4,000  Level New York Center
Wed 08:32:53 PM 40.3958 -76.0908 293° West 172 198 5,000 706 Climbing New York Center
Wed 08:33:54 PM 40.4117 -76.1572 287° West 200 230 5,400 843 Climbing New York Center
Wed 08:34:54 PM 40.4308 -76.2353 288° West 211 243 6,700 1,289 Climbing New York Center
Wed 08:35:55 PM 40.4472 -76.2911 291° West 203 234 8,000 1,412 Climbing New York Center
Wed 08:36:00 PM 40.5192 -76.4448 286° West  Level FlightAware Approximate
Wed 08:36:53 PM 40.4686 -76.3636 291° West 197 227 9,500  Level New York Center
Wed 08:37:00 PM 40.5394 -76.5355 286° West  Level FlightAware Approximate
Wed 08:37:55 PM 40.4850 -76.4142 293° West 192 221 10,500  Level New York Center
Wed 08:38:52 PM 40.5147 -76.4903 297° West 197 227 11,900 763 Climbing New York Center
Wed 08:39:53 PM 40.5386 -76.5578 295° West 209 241 12,000 49 Climbing New York Center
Wed 08:40:54 PM 40.5872 -76.6275 313° West 228 262 12,000  Level New York Center
Wed 08:41:55 PM 40.6511 -76.6411 351° North 239 275 12,000  Level New York Center
Wed 08:42:55 PM 40.7319 -76.6536 353° North 258 297 12,000  Level New York Center
Wed 08:43:53 PM 40.7981 -76.6647 353° North 263 303 12,000  Level New York Center
Wed 08:44:53 PM 40.8764 -76.6769 353° North 257 296 12,000 -50 Level New York Center
Wed 08:45:54 PM 40.9428 -76.6856 354° North 257 296 11,900  Descending New York Center
Wed 08:46:55 PM 41.0236 -76.6925 356° North 252 290 12,000 50 Climbing New York Center
Wed 08:47:55 PM 41.0964 -76.6989 356° North 257 296 12,000 -51 Level New York Center
Wed 08:48:53 PM 41.1686 -76.7108 353° North 257 296 11,900 -458 Descending New York Center
Wed 08:49:53 PM 41.2469 -76.7261 352° North 262 302 11,100 -744 Descending New York Center
Wed 08:50:54 PM 41.3214 -76.7381 353° North 274 315 10,400 -744 Descending New York Center
Wed 08:51:54 PM 41.3978 -76.7531 352° North 274 315 9,600 -744 Descending New York Center
Wed 08:52:55 PM 41.4742 -76.7656 353° North 274 315 8,900 -353 Descending New York Center
Wed 08:53:53 PM 41.5444 -76.7772 353° North 268 308 8,900  Level New York Center
Wed 08:54:54 PM 41.6125 -76.7917 351° North 258 297 8,900  Level New York Center
Wed 08:55:55 PM 41.6828 -76.8036 353° North 253 291 8,900  Level New York Center
Wed 08:56:55 PM 41.7547 -76.8183 351° North 253 291 8,900 -403 Level New York Center
Wed 08:57:54 PM 41.8244 -76.7997 11° North 253 291 8,100 -908 Descending New York Center
Wed 08:58:54 PM 41.8858 -76.7803 13° North 253 291 7,100 -1,240 Descending New York Center
Wed 08:59:55 PM 41.9539 -76.7500 18° North 259 298 5,600 -1,613 Descending New York Center
Wed 09:00:53 PM 42.0175 -76.7308 13° North 254 292 3,900 -1,759 Descending New York Center

Login

Don't have an account? Register now (free) for customized features, flight alerts, and more!